sensor_id;sensor_type;location;lat;lon;timestamp;P1;durP1;ratioP1;P2;durP2;ratioP2
59854;SDS011;45732;52.850;6.896;2023-02-24T00:00:09;10.95;;;2.70;;
59854;SDS011;45732;52.850;6.896;2023-02-24T00:02:58;13.00;;;2.75;;
59854;SDS011;45732;52.850;6.896;2023-02-24T00:05:31;14.00;;;2.80;;
59854;SDS011;45732;52.850;6.896;2023-02-24T00:07:58;10.38;;;2.47;;
59854;SDS011;45732;52.850;6.896;2023-02-24T00:10:23;10.50;;;2.40;;
59854;SDS011;45732;52.850;6.896;2023-02-24T00:12:49;14.82;;;2.75;;
59854;SDS011;45732;52.850;6.896;2023-02-24T00:15:18;11.20;;;2.53;;
59854;SDS011;45732;52.850;6.896;2023-02-24T00:17:44;11.63;;;2.25;;
59854;SDS011;45732;52.850;6.896;2023-02-24T00:20:10;11.18;;;2.80;;
59854;SDS011;45732;52.850;6.896;2023-02-24T00:22:40;13.00;;;3.17;;
59854;SDS011;45732;52.850;6.896;2023-02-24T00:25:06;10.68;;;2.42;;
59854;SDS011;45732;52.850;6.896;2023-02-24T00:27:32;14.00;;;2.72;;
59854;SDS011;45732;52.850;6.896;2023-02-24T00:29:58;10.38;;;2.70;;
59854;SDS011;45732;52.850;6.896;2023-02-24T00:32:25;9.73;;;2.47;;
59854;SDS011;45732;52.850;6.896;2023-02-24T00:34:51;9.77;;;2.42;;
59854;SDS011;45732;52.850;6.896;2023-02-24T00:37:17;10.48;;;2.42;;
59854;SDS011;45732;52.850;6.896;2023-02-24T00:39:48;12.20;;;2.70;;
59854;SDS011;45732;52.850;6.896;2023-02-24T00:42:15;12.07;;;2.33;;
59854;SDS011;45732;52.850;6.896;2023-02-24T00:44:44;8.55;;;2.40;;
59854;SDS011;45732;52.850;6.896;2023-02-24T00:47:11;16.27;;;2.65;;
59854;SDS011;45732;52.850;6.896;2023-02-24T00:49:38;9.20;;;2.47;;
59854;SDS011;45732;52.850;6.896;2023-02-24T00:52:07;8.43;;;2.33;;
59854;SDS011;45732;52.850;6.896;2023-02-24T00:54:43;11.20;;;2.25;;
59854;SDS011;45732;52.850;6.896;2023-02-24T00:57:09;13.02;;;2.60;;
59854;SDS011;45732;52.850;6.896;2023-02-24T00:59:36;9.45;;;2.15;;
59854;SDS011;45732;52.850;6.896;2023-02-24T01:02:03;11.10;;;2.10;;
59854;SDS011;45732;52.850;6.896;2023-02-24T01:04:31;8.82;;;2.33;;
59854;SDS011;45732;52.850;6.896;2023-02-24T01:06:57;11.27;;;2.22;;
59854;SDS011;45732;52.850;6.896;2023-02-24T01:09:27;8.88;;;2.15;;
59854;SDS011;45732;52.850;6.896;2023-02-24T01:11:54;8.60;;;2.08;;
59854;SDS011;45732;52.850;6.896;2023-02-24T01:14:39;10.40;;;2.10;;
59854;SDS011;45732;52.850;6.896;2023-02-24T01:17:05;8.63;;;2.30;;
59854;SDS011;45732;52.850;6.896;2023-02-24T01:19:32;8.98;;;1.92;;
59854;SDS011;45732;52.850;6.896;2023-02-24T01:22:03;7.78;;;2.17;;
59854;SDS011;45732;52.850;6.896;2023-02-24T01:24:31;12.30;;;2.15;;
59854;SDS011;45732;52.850;6.896;2023-02-24T01:26:59;7.57;;;1.65;;
59854;SDS011;45732;52.850;6.896;2023-02-24T01:29:25;9.40;;;2.05;;
59854;SDS011;45732;52.850;6.896;2023-02-24T01:31:51;8.40;;;2.20;;
59854;SDS011;45732;52.850;6.896;2023-02-24T01:34:19;9.25;;;2.03;;
59854;SDS011;45732;52.850;6.896;2023-02-24T01:36:45;10.25;;;2.30;;
59854;SDS011;45732;52.850;6.896;2023-02-24T01:39:11;10.00;;;2.03;;
59854;SDS011;45732;52.850;6.896;2023-02-24T01:41:41;10.38;;;1.90;;
59854;SDS011;45732;52.850;6.896;2023-02-24T01:46:42;8.38;;;2.20;;
59854;SDS011;45732;52.850;6.896;2023-02-24T01:49:23;9.88;;;2.50;;
59854;SDS011;45732;52.850;6.896;2023-02-24T01:52:06;11.57;;;2.58;;
59854;SDS011;45732;52.850;6.896;2023-02-24T01:54:33;8.60;;;2.10;;
59854;SDS011;45732;52.850;6.896;2023-02-24T01:57:07;11.63;;;2.95;;
59854;SDS011;45732;52.850;6.896;2023-02-24T01:59:34;9.73;;;2.20;;
59854;SDS011;45732;52.850;6.896;2023-02-24T02:02:02;14.02;;;2.80;;
59854;SDS011;45732;52.850;6.896;2023-02-24T02:07:13;10.02;;;2.40;;
59854;SDS011;45732;52.850;6.896;2023-02-24T02:09:41;12.20;;;2.63;;
59854;SDS011;45732;52.850;6.896;2023-02-24T02:12:09;9.27;;;2.38;;
59854;SDS011;45732;52.850;6.896;2023-02-24T02:14:36;10.00;;;2.42;;
59854;SDS011;45732;52.850;6.896;2023-02-24T02:33:22;9.73;;;2.40;;
59854;SDS011;45732;52.850;6.896;2023-02-24T02:38:54;10.70;;;2.17;;
59854;SDS011;45732;52.850;6.896;2023-02-24T02:41:32;11.35;;;2.58;;
59854;SDS011;45732;52.850;6.896;2023-02-24T02:46:52;11.00;;;2.97;;
59854;SDS011;45732;52.850;6.896;2023-02-24T02:49:33;9.65;;;2.22;;
59854;SDS011;45732;52.850;6.896;2023-02-24T02:52:09;9.70;;;2.00;;
59854;SDS011;45732;52.850;6.896;2023-02-24T02:54:48;9.88;;;2.53;;
59854;SDS011;45732;52.850;6.896;2023-02-24T02:57:24;9.75;;;2.25;;
59854;SDS011;45732;52.850;6.896;2023-02-24T02:59:57;7.93;;;2.10;;
59854;SDS011;45732;52.850;6.896;2023-02-24T03:02:25;9.48;;;1.88;;
59854;SDS011;45732;52.850;6.896;2023-02-24T03:04:55;8.32;;;1.85;;
59854;SDS011;45732;52.850;6.896;2023-02-24T03:07:25;8.63;;;1.95;;
59854;SDS011;45732;52.850;6.896;2023-02-24T03:09:57;10.00;;;2.00;;
59854;SDS011;45732;52.850;6.896;2023-02-24T03:12:26;8.18;;;2.03;;
59854;SDS011;45732;52.850;6.896;2023-02-24T03:14:57;9.48;;;2.28;;
59854;SDS011;45732;52.850;6.896;2023-02-24T03:17:27;12.60;;;2.00;;
59854;SDS011;45732;52.850;6.896;2023-02-24T03:20:02;9.43;;;1.98;;
59854;SDS011;45732;52.850;6.896;2023-02-24T03:22:44;7.47;;;1.67;;
59854;SDS011;45732;52.850;6.896;2023-02-24T03:25:14;11.82;;;2.70;;
59854;SDS011;45732;52.850;6.896;2023-02-24T03:30:18;7.03;;;1.70;;
59854;SDS011;45732;52.850;6.896;2023-02-24T03:35:30;10.32;;;1.98;;
59854;SDS011;45732;52.850;6.896;2023-02-24T03:38:00;7.35;;;1.80;;
59854;SDS011;45732;52.850;6.896;2023-02-24T03:40:27;7.53;;;1.70;;
59854;SDS011;45732;52.850;6.896;2023-02-24T03:45:30;7.05;;;1.50;;
59854;SDS011;45732;52.850;6.896;2023-02-24T03:47:59;9.02;;;1.70;;
59854;SDS011;45732;52.850;6.896;2023-02-24T03:50:27;8.95;;;1.58;;
59854;SDS011;45732;52.850;6.896;2023-02-24T03:58:56;10.13;;;1.65;;
59854;SDS011;45732;52.850;6.896;2023-02-24T04:04:00;9.20;;;1.60;;
59854;SDS011;45732;52.850;6.896;2023-02-24T04:06:34;12.85;;;1.83;;
59854;SDS011;45732;52.850;6.896;2023-02-24T04:20:04;8.07;;;1.75;;
59854;SDS011;45732;52.850;6.896;2023-02-24T04:22:48;7.45;;;1.80;;
59854;SDS011;45732;52.850;6.896;2023-02-24T04:25:19;12.18;;;1.83;;
59854;SDS011;45732;52.850;6.896;2023-02-24T04:27:57;9.23;;;2.15;;
59854;SDS011;45732;52.850;6.896;2023-02-24T04:30:25;9.85;;;1.58;;
59854;SDS011;45732;52.850;6.896;2023-02-24T04:32:55;9.13;;;1.63;;
59854;SDS011;45732;52.850;6.896;2023-02-24T04:35:20;8.98;;;2.22;;
59854;SDS011;45732;52.850;6.896;2023-02-24T04:37:47;10.02;;;2.35;;
59854;SDS011;45732;52.850;6.896;2023-02-24T04:40:15;9.05;;;1.73;;
59854;SDS011;45732;52.850;6.896;2023-02-24T04:42:46;7.95;;;1.85;;
59854;SDS011;45732;52.850;6.896;2023-02-24T04:45:26;11.18;;;2.15;;
59854;SDS011;45732;52.850;6.896;2023-02-24T04:47:55;7.60;;;1.73;;
59854;SDS011;45732;52.850;6.896;2023-02-24T04:50:32;9.63;;;1.50;;
59854;SDS011;45732;52.850;6.896;2023-02-24T04:53:04;11.48;;;1.70;;
59854;SDS011;45732;52.850;6.896;2023-02-24T04:55:46;8.48;;;2.17;;
59854;SDS011;45732;52.850;6.896;2023-02-24T04:58:13;11.73;;;2.10;;
59854;SDS011;45732;52.850;6.896;2023-02-24T05:00:44;6.88;;;1.48;;
59854;SDS011;45732;52.850;6.896;2023-02-24T05:03:16;8.52;;;1.85;;
59854;SDS011;45732;52.850;6.896;2023-02-24T05:05:53;7.30;;;1.70;;
59854;SDS011;45732;52.850;6.896;2023-02-24T05:08:21;8.85;;;1.83;;
59854;SDS011;45732;52.850;6.896;2023-02-24T05:10:47;6.95;;;1.50;;
59854;SDS011;45732;52.850;6.896;2023-02-24T05:13:21;8.63;;;1.85;;
59854;SDS011;45732;52.850;6.896;2023-02-24T05:15:55;17.42;;;1.80;;
59854;SDS011;45732;52.850;6.896;2023-02-24T05:18:30;6.85;;;1.90;;
59854;SDS011;45732;52.850;6.896;2023-02-24T05:21:03;9.88;;;1.63;;
59854;SDS011;45732;52.850;6.896;2023-02-24T05:23:48;7.00;;;1.63;;
59854;SDS011;45732;52.850;6.896;2023-02-24T05:26:16;12.80;;;2.00;;
59854;SDS011;45732;52.850;6.896;2023-02-24T05:28:45;8.43;;;1.60;;
59854;SDS011;45732;52.850;6.896;2023-02-24T05:31:19;9.77;;;1.80;;
59854;SDS011;45732;52.850;6.896;2023-02-24T05:33:51;10.20;;;1.80;;
59854;SDS011;45732;52.850;6.896;2023-02-24T05:36:26;6.32;;;1.65;;
59854;SDS011;45732;52.850;6.896;2023-02-24T05:38:57;9.27;;;2.15;;
59854;SDS011;45732;52.850;6.896;2023-02-24T05:41:24;9.27;;;1.52;;
59854;SDS011;45732;52.850;6.896;2023-02-24T05:43:59;10.93;;;2.00;;
59854;SDS011;45732;52.850;6.896;2023-02-24T05:46:29;9.05;;;1.70;;
59854;SDS011;45732;52.850;6.896;2023-02-24T05:49:00;6.82;;;1.50;;
59854;SDS011;45732;52.850;6.896;2023-02-24T05:51:34;8.18;;;1.60;;
59854;SDS011;45732;52.850;6.896;2023-02-24T05:54:12;12.02;;;1.50;;
59854;SDS011;45732;52.850;6.896;2023-02-24T05:56:39;9.45;;;1.83;;
59854;SDS011;45732;52.850;6.896;2023-02-24T05:59:09;8.80;;;1.73;;
59854;SDS011;45732;52.850;6.896;2023-02-24T06:01:37;11.40;;;2.55;;
59854;SDS011;45732;52.850;6.896;2023-02-24T06:04:10;7.18;;;1.48;;
59854;SDS011;45732;52.850;6.896;2023-02-24T06:06:45;8.25;;;1.80;;
59854;SDS011;45732;52.850;6.896;2023-02-24T06:09:16;10.15;;;2.10;;
59854;SDS011;45732;52.850;6.896;2023-02-24T06:11:43;9.15;;;1.98;;
59854;SDS011;45732;52.850;6.896;2023-02-24T06:14:09;9.50;;;2.05;;
59854;SDS011;45732;52.850;6.896;2023-02-24T06:16:36;7.85;;;1.50;;
59854;SDS011;45732;52.850;6.896;2023-02-24T06:19:08;9.48;;;1.73;;
59854;SDS011;45732;52.850;6.896;2023-02-24T06:21:36;8.98;;;1.70;;
59854;SDS011;45732;52.850;6.896;2023-02-24T06:24:05;10.40;;;2.00;;
59854;SDS011;45732;52.850;6.896;2023-02-24T06:26:38;8.77;;;2.22;;
59854;SDS011;45732;52.850;6.896;2023-02-24T06:29:10;11.20;;;1.85;;
59854;SDS011;45732;52.850;6.896;2023-02-24T06:34:06;9.60;;;1.90;;
59854;SDS011;45732;52.850;6.896;2023-02-24T06:36:35;9.60;;;1.98;;
59854;SDS011;45732;52.850;6.896;2023-02-24T06:39:01;6.25;;;1.92;;
59854;SDS011;45732;52.850;6.896;2023-02-24T06:41:28;7.70;;;1.95;;
59854;SDS011;45732;52.850;6.896;2023-02-24T06:43:54;19.08;;;2.90;;
59854;SDS011;45732;52.850;6.896;2023-02-24T06:46:19;11.57;;;2.20;;
59854;SDS011;45732;52.850;6.896;2023-02-24T06:48:45;11.07;;;2.28;;
59854;SDS011;45732;52.850;6.896;2023-02-24T06:51:13;10.05;;;2.50;;
59854;SDS011;45732;52.850;6.896;2023-02-24T06:53:40;9.30;;;2.33;;
59854;SDS011;45732;52.850;6.896;2023-02-24T06:56:08;10.48;;;2.30;;
59854;SDS011;45732;52.850;6.896;2023-02-24T06:58:44;11.23;;;2.25;;
59854;SDS011;45732;52.850;6.896;2023-02-24T07:01:16;10.50;;;2.65;;
59854;SDS011;45732;52.850;6.896;2023-02-24T07:03:50;16.30;;;2.63;;
59854;SDS011;45732;52.850;6.896;2023-02-24T07:06:32;10.88;;;2.65;;
59854;SDS011;45732;52.850;6.896;2023-02-24T07:09:01;13.20;;;2.88;;
59854;SDS011;45732;52.850;6.896;2023-02-24T07:11:31;12.98;;;3.00;;
59854;SDS011;45732;52.850;6.896;2023-02-24T07:13:58;9.55;;;2.67;;
59854;SDS011;45732;52.850;6.896;2023-02-24T07:16:25;11.75;;;2.72;;
59854;SDS011;45732;52.850;6.896;2023-02-24T07:18:56;11.73;;;3.05;;
59854;SDS011;45732;52.850;6.896;2023-02-24T07:21:23;14.80;;;2.90;;
59854;SDS011;45732;52.850;6.896;2023-02-24T07:23:50;10.90;;;2.92;;
59854;SDS011;45732;52.850;6.896;2023-02-24T07:26:21;13.10;;;2.75;;
59854;SDS011;45732;52.850;6.896;2023-02-24T07:28:48;9.95;;;2.70;;
59854;SDS011;45732;52.850;6.896;2023-02-24T07:31:16;10.20;;;2.63;;
59854;SDS011;45732;52.850;6.896;2023-02-24T07:33:45;13.25;;;2.80;;
59854;SDS011;45732;52.850;6.896;2023-02-24T07:36:12;11.98;;;2.65;;
59854;SDS011;45732;52.850;6.896;2023-02-24T07:38:40;10.32;;;3.20;;
59854;SDS011;45732;52.850;6.896;2023-02-24T07:41:07;11.50;;;3.10;;
59854;SDS011;45732;52.850;6.896;2023-02-24T07:43:38;12.18;;;3.10;;
59854;SDS011;45732;52.850;6.896;2023-02-24T07:46:06;12.63;;;3.70;;
59854;SDS011;45732;52.850;6.896;2023-02-24T07:48:39;11.35;;;3.00;;
59854;SDS011;45732;52.850;6.896;2023-02-24T07:51:06;11.75;;;3.47;;
59854;SDS011;45732;52.850;6.896;2023-02-24T07:53:32;13.35;;;3.40;;
59854;SDS011;45732;52.850;6.896;2023-02-24T07:55:58;17.23;;;3.92;;
59854;SDS011;45732;52.850;6.896;2023-02-24T07:58:24;14.07;;;3.50;;
59854;SDS011;45732;52.850;6.896;2023-02-24T08:00:52;13.30;;;3.10;;
59854;SDS011;45732;52.850;6.896;2023-02-24T08:03:25;8.88;;;3.45;;
59854;SDS011;45732;52.850;6.896;2023-02-24T08:05:55;14.00;;;3.50;;
59854;SDS011;45732;52.850;6.896;2023-02-24T08:08:24;12.27;;;4.00;;
59854;SDS011;45732;52.850;6.896;2023-02-24T08:10:50;18.10;;;4.07;;
59854;SDS011;45732;52.850;6.896;2023-02-24T08:13:25;15.48;;;4.05;;
59854;SDS011;45732;52.850;6.896;2023-02-24T08:15:55;10.55;;;3.72;;
59854;SDS011;45732;52.850;6.896;2023-02-24T08:18:22;13.63;;;3.90;;
59854;SDS011;45732;52.850;6.896;2023-02-24T08:20:47;14.88;;;4.10;;
59854;SDS011;45732;52.850;6.896;2023-02-24T08:23:16;15.85;;;4.18;;
59854;SDS011;45732;52.850;6.896;2023-02-24T08:25:43;14.68;;;3.80;;
59854;SDS011;45732;52.850;6.896;2023-02-24T08:28:09;15.23;;;3.88;;
59854;SDS011;45732;52.850;6.896;2023-02-24T08:30:36;13.00;;;4.25;;
59854;SDS011;45732;52.850;6.896;2023-02-24T08:33:05;18.48;;;4.80;;
59854;SDS011;45732;52.850;6.896;2023-02-24T08:35:34;16.25;;;4.55;;
59854;SDS011;45732;52.850;6.896;2023-02-24T08:38:07;14.80;;;4.50;;
59854;SDS011;45732;52.850;6.896;2023-02-24T08:40:40;16.60;;;4.30;;
59854;SDS011;45732;52.850;6.896;2023-02-24T08:48:24;14.23;;;4.35;;
59854;SDS011;45732;52.850;6.896;2023-02-24T08:51:06;15.63;;;4.15;;
59854;SDS011;45732;52.850;6.896;2023-02-24T08:53:39;12.18;;;4.10;;
59854;SDS011;45732;52.850;6.896;2023-02-24T08:56:06;18.70;;;4.78;;
59854;SDS011;45732;52.850;6.896;2023-02-24T08:58:39;14.55;;;4.60;;
59854;SDS011;45732;52.850;6.896;2023-02-24T09:01:21;15.38;;;4.35;;
59854;SDS011;45732;52.850;6.896;2023-02-24T09:03:54;14.52;;;4.80;;
59854;SDS011;45732;52.850;6.896;2023-02-24T09:06:23;19.35;;;4.43;;
59854;SDS011;45732;52.850;6.896;2023-02-24T09:09:10;14.13;;;5.00;;
59854;SDS011;45732;52.850;6.896;2023-02-24T09:11:42;15.50;;;4.45;;
59854;SDS011;45732;52.850;6.896;2023-02-24T09:14:18;15.88;;;5.70;;
59854;SDS011;45732;52.850;6.896;2023-02-24T09:16:49;12.57;;;4.50;;
59854;SDS011;45732;52.850;6.896;2023-02-24T09:19:31;17.25;;;5.40;;
59854;SDS011;45732;52.850;6.896;2023-02-24T09:22:14;17.80;;;4.95;;
59854;SDS011;45732;52.850;6.896;2023-02-24T09:27:46;17.25;;;5.55;;
59854;SDS011;45732;52.850;6.896;2023-02-24T09:30:28;11.90;;;4.95;;
59854;SDS011;45732;52.850;6.896;2023-02-24T09:33:04;12.95;;;4.97;;
59854;SDS011;45732;52.850;6.896;2023-02-24T09:35:30;12.98;;;5.10;;
59854;SDS011;45732;52.850;6.896;2023-02-24T09:38:01;15.07;;;5.45;;
59854;SDS011;45732;52.850;6.896;2023-02-24T09:40:33;15.93;;;6.65;;
59854;SDS011;45732;52.850;6.896;2023-02-24T09:43:13;14.63;;;5.63;;
59854;SDS011;45732;52.850;6.896;2023-02-24T09:45:52;16.67;;;5.78;;
59854;SDS011;45732;52.850;6.896;2023-02-24T09:48:50;13.32;;;5.47;;
59854;SDS011;45732;52.850;6.896;2023-02-24T09:51:29;16.58;;;6.13;;
59854;SDS011;45732;52.850;6.896;2023-02-24T09:54:16;16.40;;;6.35;;
59854;SDS011;45732;52.850;6.896;2023-02-24T09:56:58;12.13;;;5.47;;
59854;SDS011;45732;52.850;6.896;2023-02-24T10:02:08;15.73;;;5.97;;
59854;SDS011;45732;52.850;6.896;2023-02-24T10:07:32;13.80;;;5.68;;
59854;SDS011;45732;52.850;6.896;2023-02-24T10:10:15;14.48;;;6.70;;
59854;SDS011;45732;52.850;6.896;2023-02-24T10:13:24;14.75;;;6.32;;
59854;SDS011;45732;52.850;6.896;2023-02-24T10:15:57;19.73;;;6.72;;
59854;SDS011;45732;52.850;6.896;2023-02-24T10:26:14;13.82;;;6.82;;
59854;SDS011;45732;52.850;6.896;2023-02-24T10:29:06;16.05;;;7.57;;
59854;SDS011;45732;52.850;6.896;2023-02-24T10:32:06;16.88;;;7.35;;
59854;SDS011;45732;52.850;6.896;2023-02-24T10:34:59;13.38;;;7.28;;
59854;SDS011;45732;52.850;6.896;2023-02-24T10:37:26;14.43;;;7.15;;
59854;SDS011;45732;52.850;6.896;2023-02-24T10:40:04;13.27;;;6.72;;
59854;SDS011;45732;52.850;6.896;2023-02-24T10:42:33;14.10;;;7.55;;
59854;SDS011;45732;52.850;6.896;2023-02-24T10:45:12;13.73;;;6.18;;
59854;SDS011;45732;52.850;6.896;2023-02-24T10:47:49;11.70;;;5.97;;
59854;SDS011;45732;52.850;6.896;2023-02-24T10:50:31;10.95;;;6.00;;
59854;SDS011;45732;52.850;6.896;2023-02-24T10:53:11;10.90;;;6.15;;
59854;SDS011;45732;52.850;6.896;2023-02-24T10:55:58;13.18;;;6.15;;
59854;SDS011;45732;52.850;6.896;2023-02-24T10:58:44;12.70;;;6.50;;
59854;SDS011;45732;52.850;6.896;2023-02-24T11:01:29;14.02;;;6.55;;
59854;SDS011;45732;52.850;6.896;2023-02-24T11:04:11;13.07;;;6.25;;
59854;SDS011;45732;52.850;6.896;2023-02-24T11:07:00;10.80;;;6.15;;
59854;SDS011;45732;52.850;6.896;2023-02-24T11:10:22;9.48;;;6.30;;
59854;SDS011;45732;52.850;6.896;2023-02-24T11:12:50;12.65;;;6.68;;
59854;SDS011;45732;52.850;6.896;2023-02-24T11:15:37;12.05;;;6.80;;
59854;SDS011;45732;52.850;6.896;2023-02-24T11:18:32;13.43;;;6.13;;
59854;SDS011;45732;52.850;6.896;2023-02-24T11:23:30;13.55;;;7.40;;
59854;SDS011;45732;52.850;6.896;2023-02-24T11:26:15;18.67;;;6.80;;
59854;SDS011;45732;52.850;6.896;2023-02-24T11:28:49;16.90;;;6.93;;
59854;SDS011;45732;52.850;6.896;2023-02-24T11:42:23;20.10;;;4.32;;
59854;SDS011;45732;52.850;6.896;2023-02-24T11:48:10;19.95;;;4.75;;
59854;SDS011;45732;52.850;6.896;2023-02-24T11:51:00;18.73;;;3.78;;
59854;SDS011;45732;52.850;6.896;2023-02-24T12:09:33;25.58;;;4.97;;
59854;SDS011;45732;52.850;6.896;2023-02-24T12:12:13;20.75;;;4.68;;
59854;SDS011;45732;52.850;6.896;2023-02-24T12:14:52;19.60;;;4.20;;
59854;SDS011;45732;52.850;6.896;2023-02-24T12:17:30;18.95;;;3.30;;
59854;SDS011;45732;52.850;6.896;2023-02-24T12:20:14;14.70;;;2.90;;
59854;SDS011;45732;52.850;6.896;2023-02-24T12:22:48;18.55;;;3.85;;
59854;SDS011;45732;52.850;6.896;2023-02-24T12:25:19;15.73;;;3.80;;
59854;SDS011;45732;52.850;6.896;2023-02-24T12:28:39;15.50;;;3.40;;
59854;SDS011;45732;52.850;6.896;2023-02-24T12:33:28;22.08;;;4.55;;
59854;SDS011;45732;52.850;6.896;2023-02-24T12:44:29;24.42;;;3.85;;
59854;SDS011;45732;52.850;6.896;2023-02-24T12:47:15;30.60;;;4.35;;
59854;SDS011;45732;52.850;6.896;2023-02-24T12:50:09;22.20;;;4.35;;
59854;SDS011;45732;52.850;6.896;2023-02-24T12:55:52;12.15;;;2.28;;
59854;SDS011;45732;52.850;6.896;2023-02-24T12:58:20;14.25;;;2.55;;
59854;SDS011;45732;52.850;6.896;2023-02-24T13:09:23;15.57;;;2.92;;
59854;SDS011;45732;52.850;6.896;2023-02-24T13:12:22;14.50;;;2.17;;
59854;SDS011;45732;52.850;6.896;2023-02-24T13:15:02;18.02;;;3.50;;
59854;SDS011;45732;52.850;6.896;2023-02-24T13:17:29;16.50;;;2.72;;
59854;SDS011;45732;52.850;6.896;2023-02-24T13:19:54;13.93;;;2.53;;
59854;SDS011;45732;52.850;6.896;2023-02-24T13:22:25;12.98;;;1.92;;
59854;SDS011;45732;52.850;6.896;2023-02-24T13:24:56;14.98;;;2.55;;
59854;SDS011;45732;52.850;6.896;2023-02-24T13:27:29;13.65;;;2.90;;
59854;SDS011;45732;52.850;6.896;2023-02-24T13:32:40;17.85;;;2.60;;
59854;SDS011;45732;52.850;6.896;2023-02-24T13:37:38;13.52;;;2.70;;
59854;SDS011;45732;52.850;6.896;2023-02-24T13:40:18;12.65;;;2.40;;
59854;SDS011;45732;52.850;6.896;2023-02-24T13:42:57;11.68;;;1.92;;
59854;SDS011;45732;52.850;6.896;2023-02-24T13:45:34;15.70;;;2.03;;
59854;SDS011;45732;52.850;6.896;2023-02-24T13:51:21;12.30;;;1.90;;
59854;SDS011;45732;52.850;6.896;2023-02-24T14:01:48;13.52;;;1.65;;
59854;SDS011;45732;52.850;6.896;2023-02-24T14:04:21;8.18;;;1.70;;
59854;SDS011;45732;52.850;6.896;2023-02-24T14:07:00;11.30;;;2.28;;
59854;SDS011;45732;52.850;6.896;2023-02-24T14:09:51;10.45;;;1.42;;
59854;SDS011;45732;52.850;6.896;2023-02-24T14:12:28;6.07;;;1.00;;
59854;SDS011;45732;52.850;6.896;2023-02-24T14:14:56;8.40;;;1.20;;
59854;SDS011;45732;52.850;6.896;2023-02-24T14:17:27;5.70;;;1.10;;
59854;SDS011;45732;52.850;6.896;2023-02-24T14:19:55;8.93;;;1.30;;
59854;SDS011;45732;52.850;6.896;2023-02-24T14:22:57;8.77;;;1.45;;
59854;SDS011;45732;52.850;6.896;2023-02-24T14:25:25;8.98;;;1.35;;
59854;SDS011;45732;52.850;6.896;2023-02-24T14:27:54;6.38;;;1.40;;
59854;SDS011;45732;52.850;6.896;2023-02-24T14:30:21;9.90;;;3.45;;
59854;SDS011;45732;52.850;6.896;2023-02-24T14:32:51;11.82;;;5.43;;
59854;SDS011;45732;52.850;6.896;2023-02-24T14:35:26;8.52;;;1.67;;
59854;SDS011;45732;52.850;6.896;2023-02-24T14:37:53;8.77;;;1.52;;
59854;SDS011;45732;52.850;6.896;2023-02-24T14:40:18;5.95;;;1.00;;
59854;SDS011;45732;52.850;6.896;2023-02-24T14:42:47;6.95;;;0.90;;
59854;SDS011;45732;52.850;6.896;2023-02-24T14:45:18;8.23;;;1.00;;
59854;SDS011;45732;52.850;6.896;2023-02-24T14:47:45;7.13;;;1.05;;
59854;SDS011;45732;52.850;6.896;2023-02-24T14:50:15;7.00;;;1.15;;
59854;SDS011;45732;52.850;6.896;2023-02-24T14:53:15;4.95;;;1.10;;
59854;SDS011;45732;52.850;6.896;2023-02-24T14:55:39;3.75;;;0.70;;
59854;SDS011;45732;52.850;6.896;2023-02-24T14:58:26;4.82;;;1.70;;
59854;SDS011;45732;52.850;6.896;2023-02-24T15:01:00;8.38;;;1.15;;
59854;SDS011;45732;52.850;6.896;2023-02-24T15:03:36;11.27;;;1.52;;
59854;SDS011;45732;52.850;6.896;2023-02-24T15:06:22;9.82;;;1.70;;
59854;SDS011;45732;52.850;6.896;2023-02-24T15:08:50;9.75;;;1.33;;
59854;SDS011;45732;52.850;6.896;2023-02-24T15:11:23;9.65;;;2.05;;
59854;SDS011;45732;52.850;6.896;2023-02-24T15:13:53;8.70;;;1.50;;
59854;SDS011;45732;52.850;6.896;2023-02-24T15:16:32;10.88;;;1.35;;
59854;SDS011;45732;52.850;6.896;2023-02-24T15:19:03;8.85;;;1.77;;
59854;SDS011;45732;52.850;6.896;2023-02-24T15:21:33;8.40;;;1.20;;
59854;SDS011;45732;52.850;6.896;2023-02-24T15:29:44;14.50;;;2.67;;
59854;SDS011;45732;52.850;6.896;2023-02-24T15:32:25;15.63;;;3.05;;
59854;SDS011;45732;52.850;6.896;2023-02-24T15:34:53;10.02;;;2.00;;
59854;SDS011;45732;52.850;6.896;2023-02-24T15:37:24;14.48;;;2.20;;
59854;SDS011;45732;52.850;6.896;2023-02-24T15:39:56;15.52;;;2.75;;
59854;SDS011;45732;52.850;6.896;2023-02-24T15:42:32;11.98;;;1.80;;
59854;SDS011;45732;52.850;6.896;2023-02-24T15:45:00;11.50;;;1.92;;
59854;SDS011;45732;52.850;6.896;2023-02-24T15:47:44;12.97;;;3.27;;
59854;SDS011;45732;52.850;6.896;2023-02-24T15:50:10;10.18;;;3.00;;
59854;SDS011;45732;52.850;6.896;2023-02-24T15:52:37;11.82;;;2.45;;
59854;SDS011;45732;52.850;6.896;2023-02-24T15:55:04;7.15;;;1.30;;
59854;SDS011;45732;52.850;6.896;2023-02-24T15:57:31;9.35;;;1.67;;
59854;SDS011;45732;52.850;6.896;2023-02-24T15:59:57;10.10;;;1.98;;
59854;SDS011;45732;52.850;6.896;2023-02-24T16:02:24;14.73;;;2.25;;
59854;SDS011;45732;52.850;6.896;2023-02-24T16:04:50;13.60;;;2.17;;
59854;SDS011;45732;52.850;6.896;2023-02-24T16:07:20;13.25;;;2.28;;
59854;SDS011;45732;52.850;6.896;2023-02-24T16:09:53;15.23;;;2.47;;
59854;SDS011;45732;52.850;6.896;2023-02-24T16:12:21;11.23;;;2.45;;
59854;SDS011;45732;52.850;6.896;2023-02-24T16:14:52;16.27;;;5.13;;
59854;SDS011;45732;52.850;6.896;2023-02-24T16:19:59;14.60;;;3.15;;
59854;SDS011;45732;52.850;6.896;2023-02-24T16:22:26;13.82;;;2.78;;
59854;SDS011;45732;52.850;6.896;2023-02-24T16:24:52;15.43;;;3.45;;
59854;SDS011;45732;52.850;6.896;2023-02-24T16:27:19;20.73;;;7.88;;
59854;SDS011;45732;52.850;6.896;2023-02-24T16:29:46;14.65;;;3.13;;
59854;SDS011;45732;52.850;6.896;2023-02-24T16:32:13;12.77;;;2.90;;
59854;SDS011;45732;52.850;6.896;2023-02-24T16:34:40;18.92;;;3.92;;
59854;SDS011;45732;52.850;6.896;2023-02-24T16:37:16;14.95;;;2.85;;
59854;SDS011;45732;52.850;6.896;2023-02-24T16:39:50;18.77;;;3.28;;
59854;SDS011;45732;52.850;6.896;2023-02-24T16:42:17;17.25;;;3.20;;
59854;SDS011;45732;52.850;6.896;2023-02-24T16:44:43;17.13;;;5.00;;
59854;SDS011;45732;52.850;6.896;2023-02-24T16:47:13;13.65;;;2.72;;
59854;SDS011;45732;52.850;6.896;2023-02-24T16:49:41;16.73;;;2.95;;
59854;SDS011;45732;52.850;6.896;2023-02-24T16:52:07;15.88;;;2.70;;
59854;SDS011;45732;52.850;6.896;2023-02-24T16:54:35;16.75;;;3.28;;
59854;SDS011;45732;52.850;6.896;2023-02-24T16:57:00;12.20;;;2.35;;
59854;SDS011;45732;52.850;6.896;2023-02-24T16:59:26;15.52;;;2.90;;
59854;SDS011;45732;52.850;6.896;2023-02-24T17:01:52;18.63;;;7.22;;
59854;SDS011;45732;52.850;6.896;2023-02-24T17:04:19;15.32;;;5.15;;
59854;SDS011;45732;52.850;6.896;2023-02-24T17:06:46;16.95;;;2.70;;
59854;SDS011;45732;52.850;6.896;2023-02-24T17:09:12;15.05;;;4.25;;
59854;SDS011;45732;52.850;6.896;2023-02-24T17:11:39;20.33;;;4.18;;
59854;SDS011;45732;52.850;6.896;2023-02-24T17:14:08;15.52;;;3.42;;
59854;SDS011;45732;52.850;6.896;2023-02-24T17:16:39;17.20;;;3.92;;
59854;SDS011;45732;52.850;6.896;2023-02-24T17:19:06;15.13;;;3.20;;
59854;SDS011;45732;52.850;6.896;2023-02-24T17:21:32;17.33;;;3.70;;
59854;SDS011;45732;52.850;6.896;2023-02-24T17:23:58;18.70;;;3.20;;
59854;SDS011;45732;52.850;6.896;2023-02-24T17:26:23;14.77;;;3.40;;
59854;SDS011;45732;52.850;6.896;2023-02-24T17:28:49;16.13;;;2.85;;
59854;SDS011;45732;52.850;6.896;2023-02-24T17:31:15;13.85;;;2.97;;
59854;SDS011;45732;52.850;6.896;2023-02-24T17:33:40;19.95;;;3.92;;
59854;SDS011;45732;52.850;6.896;2023-02-24T17:36:06;20.15;;;4.07;;
59854;SDS011;45732;52.850;6.896;2023-02-24T17:38:32;18.42;;;3.15;;
59854;SDS011;45732;52.850;6.896;2023-02-24T17:40:58;16.55;;;3.60;;
59854;SDS011;45732;52.850;6.896;2023-02-24T17:43:26;19.77;;;3.42;;
59854;SDS011;45732;52.850;6.896;2023-02-24T17:45:52;19.23;;;4.47;;